Terminal Aerodrome Forecast
Issued by NWS

Home | Current Version | Previous Version | Text Only | Print | Product List | Glossary On
Versions: 1 2 3 4 5 6 7 8 9 10 11 12 13 14 15 16 17 18 19 20 21 22 23 24 25 26 27 28 29 30 31 32 33 34 35 36 37 38 39 40 41 42 43 44
000
FTUS45 KSLC 202043 AAB
TAFBCE
TAF AMD
KBCE 202043Z 2021/2118 14017KT 1/4SM -SN FG BKN007 OVC018
     FM210000 16010KT 1SM -SN BR SCT004 BKN015=

USA.gov is the U.S. government's official web portal to all federal, state and local government web resources and services.